Time;durP1;ratioP1;P1;durP2;ratioP2;P2;SDS_P1;SDS_P2;PMS_P1;PMS_P2;Temp;Humidity;BMP_temperature;BMP_pressure;BME280_temperature;BME280_humidity;BME280_pressure;Samples;Min_cycle;Max_cycle;Signal;HPM_P1;HPM_P2
2022/06/17 00:01:20;;;;;;;16.30;10.13;;;;;;;;;;5000676;28;20253;-70
2022/06/17 00:03:45;;;;;;;13.25;9.93;;;;;;;;;;4998443;28;20980;-70
2022/06/17 00:06:11;;;;;;;14.18;10.38;;;;;;;;;;5000094;28;20286;-70
2022/06/17 00:08:41;;;;;;;16.30;9.40;;;;;;;;;;4997891;28;20198;-70
2022/06/17 00:11:25;;;;;;;12.90;9.23;;;;;;;;;;4999632;28;20647;-70
2022/06/17 00:13:51;;;;;;;13.38;9.60;;;;;;;;;;5015298;28;20268;-70
2022/06/17 00:16:18;;;;;;;14.13;10.18;;;;;;;;;;4998838;28;20672;-71
2022/06/17 00:18:44;;;;;;;16.65;10.30;;;;;;;;;;4997769;28;20194;-70
2022/06/17 00:21:23;;;;;;;14.65;10.95;;;;;;;;;;4998799;28;20205;-71
2022/06/17 00:23:50;;;;;;;14.30;10.93;;;;;;;;;;5011648;28;20236;-71
2022/06/17 00:26:15;;;;;;;17.00;11.18;;;;;;;;;;5014240;28;20241;-71
2022/06/17 00:28:41;;;;;;;13.23;11.23;;;;;;;;;;4997021;28;20206;-71
2022/06/17 00:31:07;;;;;;;14.82;11.25;;;;;;;;;;4997940;28;20292;-71
2022/06/17 00:33:32;;;;;;;15.90;11.13;;;;;;;;;;4998249;28;20210;-71
2022/06/17 00:35:58;;;;;;;15.93;11.98;;;;;;;;;;4996807;28;20186;-71
2022/06/17 00:38:26;;;;;;;17.35;11.75;;;;;;;;;;4997751;28;20681;-70
2022/06/17 00:40:52;;;;;;;17.27;11.07;;;;;;;;;;5001330;28;20186;-71
2022/06/17 00:43:40;;;;;;;15.40;12.20;;;;;;;;;;5020077;28;20190;-71
2022/06/17 00:46:27;;;;;;;15.00;12.00;;;;;;;;;;5003814;28;20221;-71
2022/06/17 00:49:03;;;;;;;14.90;11.98;;;;;;;;;;5003990;28;20209;-72
2022/06/17 00:51:34;;;;;;;16.00;11.98;;;;;;;;;;5004411;28;20182;-70
2022/06/17 00:54:04;;;;;;;15.13;12.00;;;;;;;;;;5003204;28;20186;-71
2022/06/17 00:56:35;;;;;;;14.63;11.65;;;;;;;;;;5005680;28;20186;-71
2022/06/17 00:59:07;;;;;;;15.75;11.80;;;;;;;;;;5008124;28;20224;-70
2022/06/17 01:01:50;;;;;;;17.00;11.77;;;;;;;;;;5011269;28;20677;-71
2022/06/17 01:04:20;;;;;;;16.95;11.70;;;;;;;;;;5002535;28;20193;-71
2022/06/17 01:06:51;;;;;;;14.82;11.60;;;;;;;;;;5005769;28;20572;-71
2022/06/17 01:12:13;;;;;;;17.35;12.45;;;;;;;;;;5004249;28;20276;-70
2022/06/17 01:14:41;;;;;;;15.45;12.23;;;;;;;;;;5005028;28;20820;-71
2022/06/17 01:17:09;;;;;;;14.73;12.38;;;;;;;;;;5004730;28;20322;-71
2022/06/17 01:19:46;;;;;;;18.02;13.10;;;;;;;;;;5003649;28;20182;-71
2022/06/17 01:22:25;;;;;;;15.38;13.32;;;;;;;;;;5004153;28;20198;-71
2022/06/17 01:25:03;;;;;;;16.88;12.98;;;;;;;;;;5002884;28;20190;-71
2022/06/17 01:27:35;;;;;;;17.83;13.77;;;;;;;;;;5004856;28;20244;-71
2022/06/17 01:30:01;;;;;;;17.08;13.02;;;;;;;;;;5002404;28;20190;-70
2022/06/17 01:32:32;;;;;;;17.80;12.43;;;;;;;;;;5002581;28;20237;-70
2022/06/17 01:34:59;;;;;;;19.95;12.88;;;;;;;;;;5008015;28;20195;-71
2022/06/17 01:37:25;;;;;;;15.57;12.65;;;;;;;;;;5003826;28;20195;-70
2022/06/17 01:39:50;;;;;;;19.67;12.77;;;;;;;;;;5002389;28;20244;-70
2022/06/17 01:42:17;;;;;;;20.42;13.15;;;;;;;;;;5004801;28;20209;-70
2022/06/17 01:44:42;;;;;;;20.42;13.48;;;;;;;;;;5018001;28;20197;-70
2022/06/17 01:47:17;;;;;;;15.93;13.18;;;;;;;;;;5004426;28;20815;-70
2022/06/17 01:49:48;;;;;;;17.80;13.55;;;;;;;;;;5003015;28;20664;-71
2022/06/17 01:52:35;;;;;;;17.20;13.98;;;;;;;;;;5000297;28;20278;-71
2022/06/17 01:55:10;;;;;;;14.75;12.90;;;;;;;;;;4998666;28;20193;-71
2022/06/17 01:57:44;;;;;;;16.13;13.63;;;;;;;;;;4999661;28;20189;-70
2022/06/17 02:00:25;;;;;;;13.35;11.90;;;;;;;;;;4998775;28;20195;-70
2022/06/17 02:02:57;;;;;;;20.20;14.00;;;;;;;;;;4998104;28;20229;-71
2022/06/17 02:05:25;;;;;;;19.10;14.50;;;;;;;;;;5000730;28;20186;-71
2022/06/17 02:07:57;;;;;;;15.80;13.88;;;;;;;;;;4998403;28;20230;-71
2022/06/17 02:10:26;;;;;;;20.00;14.23;;;;;;;;;;5000121;28;20182;-70
2022/06/17 02:12:52;;;;;;;19.65;14.77;;;;;;;;;;5000147;28;20230;-71
2022/06/17 02:15:17;;;;;;;17.60;13.45;;;;;;;;;;5001407;28;20655;-71
2022/06/17 02:17:45;;;;;;;18.77;14.00;;;;;;;;;;5000689;28;20664;-72
2022/06/17 02:20:13;;;;;;;23.95;14.57;;;;;;;;;;5000433;28;20194;-71
2022/06/17 02:22:39;;;;;;;19.20;13.48;;;;;;;;;;4999446;28;20197;-71
2022/06/17 02:25:09;;;;;;;15.90;13.88;;;;;;;;;;5000600;28;20183;-71
2022/06/17 02:27:36;;;;;;;17.42;14.30;;;;;;;;;;4999963;28;20257;-71
2022/06/17 02:30:04;;;;;;;15.73;13.20;;;;;;;;;;4999700;28;20186;-71
2022/06/17 02:32:31;;;;;;;17.27;14.60;;;;;;;;;;5001015;28;20302;-71
2022/06/17 02:35:27;;;;;;;22.00;14.48;;;;;;;;;;4999638;28;20297;-71
2022/06/17 02:37:54;;;;;;;18.92;14.85;;;;;;;;;;5015220;28;20286;-71
2022/06/17 02:40:32;;;;;;;20.98;14.77;;;;;;;;;;4999532;28;20312;-72
2022/06/17 02:43:00;;;;;;;17.38;14.23;;;;;;;;;;4997772;28;20316;-72
2022/06/17 02:45:28;;;;;;;20.35;15.35;;;;;;;;;;5000842;28;20713;-72
2022/06/17 02:47:54;;;;;;;22.02;15.73;;;;;;;;;;4997430;28;20297;-72
2022/06/17 02:50:22;;;;;;;23.60;16.98;;;;;;;;;;4999318;28;20801;-72
2022/06/17 02:52:51;;;;;;;18.83;16.05;;;;;;;;;;4995907;28;20187;-70
2022/06/17 02:55:28;;;;;;;21.15;16.88;;;;;;;;;;5000730;28;20312;-70
2022/06/17 02:58:02;;;;;;;25.13;18.13;;;;;;;;;;5000629;28;20182;-70
2022/06/17 03:00:27;;;;;;;23.40;17.50;;;;;;;;;;4999651;28;20187;-71
2022/06/17 03:02:57;;;;;;;21.25;16.70;;;;;;;;;;4998305;28;20729;-71
2022/06/17 03:05:25;;;;;;;20.02;16.38;;;;;;;;;;4999786;28;20225;-71
2022/06/17 03:07:52;;;;;;;21.17;16.48;;;;;;;;;;4998104;28;20581;-71
2022/06/17 03:10:24;;;;;;;22.60;16.58;;;;;;;;;;4998062;28;20213;-70
2022/06/17 03:12:55;;;;;;;19.33;15.70;;;;;;;;;;4998319;28;20179;-72
2022/06/17 03:15:22;;;;;;;21.10;16.45;;;;;;;;;;5012501;28;20195;-70
2022/06/17 03:17:47;;;;;;;23.40;16.58;;;;;;;;;;4999040;28;20750;-71
2022/06/17 03:20:21;;;;;;;20.50;15.65;;;;;;;;;;4999014;28;20680;-70
2022/06/17 03:22:51;;;;;;;20.45;15.32;;;;;;;;;;4998888;28;20678;-70
2022/06/17 03:25:25;;;;;;;20.20;14.85;;;;;;;;;;4998388;28;20230;-70
2022/06/17 03:27:55;;;;;;;19.95;15.60;;;;;;;;;;4998694;28;20241;-71
2022/06/17 03:30:32;;;;;;;21.85;15.52;;;;;;;;;;4997847;28;20190;-70
2022/06/17 03:33:32;;;;;;;19.88;15.63;;;;;;;;;;4997352;28;20202;-71
2022/06/17 03:36:04;;;;;;;19.55;15.52;;;;;;;;;;4991268;28;20209;-71
2022/06/17 03:38:36;;;;;;;21.45;15.55;;;;;;;;;;5004659;28;20587;-71
2022/06/17 03:41:22;;;;;;;19.35;16.05;;;;;;;;;;4998167;28;20182;-71
2022/06/17 03:44:05;;;;;;;20.33;15.15;;;;;;;;;;4996520;28;20199;-70
2022/06/17 03:46:43;;;;;;;18.42;15.48;;;;;;;;;;4997381;28;20213;-70
2022/06/17 03:49:27;;;;;;;18.73;14.98;;;;;;;;;;4999283;28;20186;-71
2022/06/17 03:51:59;;;;;;;20.05;15.10;;;;;;;;;;4998628;28;20273;-70
2022/06/17 03:54:25;;;;;;;18.70;14.75;;;;;;;;;;4997454;28;20183;-70
2022/06/17 03:56:53;;;;;;;20.38;14.48;;;;;;;;;;4999209;28;20237;-70
2022/06/17 03:59:22;;;;;;;16.42;14.43;;;;;;;;;;4996893;28;20223;-71
2022/06/17 04:02:11;;;;;;;17.30;14.88;;;;;;;;;;4999910;28;20183;-71
2022/06/17 04:04:48;;;;;;;17.77;14.32;;;;;;;;;;4996976;28;20678;-71
2022/06/17 04:07:14;;;;;;;17.40;13.52;;;;;;;;;;4998419;28;20210;-71
2022/06/17 04:09:45;;;;;;;16.30;14.10;;;;;;;;;;4996199;28;20183;-71
2022/06/17 04:12:14;;;;;;;16.05;13.90;;;;;;;;;;4997608;28;20189;-71
2022/06/17 04:15:09;;;;;;;16.73;13.23;;;;;;;;;;4993310;28;20199;-71
2022/06/17 04:17:42;;;;;;;17.23;13.40;;;;;;;;;;4997291;28;20186;-71
2022/06/17 04:20:26;;;;;;;15.70;13.18;;;;;;;;;;4995951;28;20215;-71
2022/06/17 04:23:03;;;;;;;15.35;13.25;;;;;;;;;;4999241;28;20185;-71
2022/06/17 04:25:44;;;;;;;17.25;12.98;;;;;;;;;;4998390;28;20174;-71
2022/06/17 04:28:14;;;;;;;14.93;12.95;;;;;;;;;;4957189;28;20238;-71
2022/06/17 04:30:42;;;;;;;15.73;12.75;;;;;;;;;;4955521;28;20188;-71
2022/06/17 04:33:23;;;;;;;16.67;12.30;;;;;;;;;;4958427;28;20191;-70
2022/06/17 04:35:52;;;;;;;14.68;12.10;;;;;;;;;;4956962;28;20550;-70
2022/06/17 04:38:17;;;;;;;15.70;11.93;;;;;;;;;;4957654;28;20303;-70
2022/06/17 04:40:47;;;;;;;14.98;11.38;;;;;;;;;;4956020;28;20278;-70
2022/06/17 04:43:47;;;;;;;15.20;10.50;;;;;;;;;;4957378;28;20200;-70
2022/06/17 04:46:18;;;;;;;13.15;10.25;;;;;;;;;;4949006;28;20207;-71
2022/06/17 04:48:44;;;;;;;13.43;10.68;;;;;;;;;;4956219;28;20283;-71
2022/06/17 04:51:10;;;;;;;11.48;10.00;;;;;;;;;;4957057;28;20322;-71
2022/06/17 04:53:38;;;;;;;13.60;10.05;;;;;;;;;;4956413;28;20195;-71
2022/06/17 04:56:08;;;;;;;12.65;10.10;;;;;;;;;;4958203;28;20184;-70
2022/06/17 04:58:33;;;;;;;14.13;10.20;;;;;;;;;;4957715;28;20346;-71
2022/06/17 05:00:58;;;;;;;13.98;10.00;;;;;;;;;;4954541;28;20286;-71
2022/06/17 05:03:29;;;;;;;11.63;9.40;;;;;;;;;;4955795;28;20208;-70
2022/06/17 05:05:54;;;;;;;11.40;8.98;;;;;;;;;;4955465;28;20188;-71
2022/06/17 05:08:28;;;;;;;12.18;9.43;;;;;;;;;;4956323;28;20566;-71
2022/06/17 05:11:02;;;;;;;14.70;8.93;;;;;;;;;;4957084;28;20279;-71
2022/06/17 05:13:34;;;;;;;11.52;9.13;;;;;;;;;;4955725;28;20250;-71
2022/06/17 05:16:00;;;;;;;9.68;8.65;;;;;;;;;;4955843;28;20192;-71
2022/06/17 05:18:26;;;;;;;11.32;8.68;;;;;;;;;;4957495;28;20652;-71
2022/06/17 05:20:51;;;;;;;10.77;8.85;;;;;;;;;;4963363;28;20184;-70
2022/06/17 05:23:17;;;;;;;11.93;8.52;;;;;;;;;;4957778;28;20639;-71
2022/06/17 05:25:46;;;;;;;12.02;8.90;;;;;;;;;;4961176;28;20188;-71
2022/06/17 05:28:15;;;;;;;12.52;8.18;;;;;;;;;;4998895;28;20605;-70
2022/06/17 05:30:44;;;;;;;9.95;7.90;;;;;;;;;;5000192;28;20277;-70
2022/06/17 05:33:12;;;;;;;14.90;8.18;;;;;;;;;;4998424;28;20739;-70
2022/06/17 05:35:38;;;;;;;13.20;7.70;;;;;;;;;;5006726;28;20273;-70
2022/06/17 05:38:03;;;;;;;10.05;7.70;;;;;;;;;;4998975;28;20274;-70
2022/06/17 05:40:29;;;;;;;11.68;7.95;;;;;;;;;;4996818;28;20233;-71
2022/06/17 05:42:54;;;;;;;13.82;8.23;;;;;;;;;;5031265;28;20241;-71
2022/06/17 05:45:25;;;;;;;9.55;7.65;;;;;;;;;;5013125;28;20190;-70
2022/06/17 05:47:52;;;;;;;14.55;7.35;;;;;;;;;;4998157;28;20694;-71
2022/06/17 05:50:19;;;;;;;10.18;6.80;;;;;;;;;;4998011;28;20198;-70
2022/06/17 05:52:48;;;;;;;12.18;6.90;;;;;;;;;;4999046;28;20194;-70
2022/06/17 05:55:13;;;;;;;9.57;6.40;;;;;;;;;;4998980;28;20195;-69
2022/06/17 05:57:39;;;;;;;9.30;6.20;;;;;;;;;;4998733;28;20175;-67
2022/06/17 06:00:05;;;;;;;9.95;5.80;;;;;;;;;;4998437;28;20191;-64
2022/06/17 06:02:30;;;;;;;8.13;5.22;;;;;;;;;;4998091;28;20381;-66
2022/06/17 06:04:55;;;;;;;9.52;5.30;;;;;;;;;;4998141;28;20582;-67
2022/06/17 06:07:21;;;;;;;8.48;5.20;;;;;;;;;;5000758;28;20633;-66
2022/06/17 06:09:46;;;;;;;8.65;5.13;;;;;;;;;;4997269;28;20665;-65
2022/06/17 06:12:11;;;;;;;9.00;5.20;;;;;;;;;;5000592;28;20221;-64
2022/06/17 06:14:37;;;;;;;6.88;4.68;;;;;;;;;;4998181;28;20210;-65
2022/06/17 06:17:02;;;;;;;9.20;5.50;;;;;;;;;;5001692;28;20186;-64
2022/06/17 06:19:30;;;;;;;6.80;4.70;;;;;;;;;;5001050;28;20198;-65
2022/06/17 06:21:56;;;;;;;8.88;5.18;;;;;;;;;;5000005;28;20582;-65
2022/06/17 06:24:21;;;;;;;10.68;5.22;;;;;;;;;;4998861;28;20654;-65
2022/06/17 06:26:46;;;;;;;9.05;5.47;;;;;;;;;;4995993;28;20508;-66
2022/06/17 06:29:13;;;;;;;9.80;5.05;;;;;;;;;;4992987;28;20383;-66
2022/06/17 06:31:38;;;;;;;6.57;4.90;;;;;;;;;;4995395;28;20220;-64
2022/06/17 06:34:04;;;;;;;7.38;5.57;;;;;;;;;;4996481;28;20183;-67
2022/06/17 06:36:30;;;;;;;7.38;5.53;;;;;;;;;;4997547;28;20206;-65
2022/06/17 06:38:55;;;;;;;6.72;5.38;;;;;;;;;;4996668;28;20592;-67
2022/06/17 06:41:21;;;;;;;6.95;4.50;;;;;;;;;;4998051;28;20281;-64
2022/06/17 06:43:51;;;;;;;11.73;5.50;;;;;;;;;;4995056;28;20893;-64
2022/06/17 06:46:19;;;;;;;6.55;5.70;;;;;;;;;;4996298;28;20648;-65
2022/06/17 06:48:46;;;;;;;7.57;5.50;;;;;;;;;;4995413;28;20661;-64
2022/06/17 06:51:11;;;;;;;7.82;5.28;;;;;;;;;;4997301;28;20183;-64
2022/06/17 06:53:36;;;;;;;8.20;6.35;;;;;;;;;;4997627;28;20716;-66
2022/06/17 06:56:05;;;;;;;10.55;5.57;;;;;;;;;;4996774;28;20282;-66
2022/06/17 06:58:30;;;;;;;8.57;5.57;;;;;;;;;;4997663;28;20547;-66
2022/06/17 07:00:57;;;;;;;10.00;5.55;;;;;;;;;;4995181;28;20196;-65
2022/06/17 07:03:24;;;;;;;9.68;5.72;;;;;;;;;;4998047;28;20310;-64
2022/06/17 07:05:53;;;;;;;9.35;5.50;;;;;;;;;;4997608;28;20199;-66
2022/06/17 07:08:21;;;;;;;11.85;5.38;;;;;;;;;;5010885;28;20203;-64
2022/06/17 07:10:48;;;;;;;10.18;4.70;;;;;;;;;;4997601;28;20658;-65
2022/06/17 07:13:14;;;;;;;8.07;4.35;;;;;;;;;;4996722;28;20217;-67
2022/06/17 07:15:41;;;;;;;8.80;4.57;;;;;;;;;;4997617;28;20602;-66
2022/06/17 07:18:36;;;;;;;7.00;4.55;;;;;;;;;;4997150;28;20195;-66
2022/06/17 07:21:05;;;;;;;9.68;4.47;;;;;;;;;;4988054;28;20755;-66
2022/06/17 07:23:40;;;;;;;6.97;4.55;;;;;;;;;;4997094;28;20436;-64
2022/06/17 07:26:08;;;;;;;4.05;3.65;;;;;;;;;;4996818;28;20230;-64
2022/06/17 07:28:34;;;;;;;5.63;4.00;;;;;;;;;;4997960;28;20211;-63
2022/06/17 07:30:59;;;;;;;8.73;4.65;;;;;;;;;;4997936;28;20217;-65
2022/06/17 07:33:28;;;;;;;8.48;4.15;;;;;;;;;;4996746;28;20226;-65
2022/06/17 07:35:57;;;;;;;8.82;4.25;;;;;;;;;;4996234;28;20193;-65
2022/06/17 07:41:13;;;;;;;7.63;4.05;;;;;;;;;;4997363;28;20205;-64
2022/06/17 07:43:38;;;;;;;6.47;3.63;;;;;;;;;;4997256;28;20321;-65
2022/06/17 07:46:05;;;;;;;7.13;4.43;;;;;;;;;;4997183;28;20659;-65
2022/06/17 07:48:31;;;;;;;6.30;3.90;;;;;;;;;;4997720;28;20215;-65
2022/06/17 07:50:58;;;;;;;5.55;3.55;;;;;;;;;;4996054;28;20186;-65
2022/06/17 07:53:26;;;;;;;4.75;3.03;;;;;;;;;;4997682;28;20735;-64
2022/06/17 07:55:52;;;;;;;4.85;3.42;;;;;;;;;;4993488;28;20190;-66
2022/06/17 07:58:17;;;;;;;5.75;3.30;;;;;;;;;;4997473;28;20564;-64
2022/06/17 08:00:45;;;;;;;6.20;3.33;;;;;;;;;;4993953;28;20202;-65
2022/06/17 08:03:13;;;;;;;6.93;3.30;;;;;;;;;;4995452;28;20236;-64
2022/06/17 08:05:44;;;;;;;6.30;3.72;;;;;;;;;;4995652;28;20179;-65
2022/06/17 08:08:11;;;;;;;7.53;3.63;;;;;;;;;;4994116;28;20725;-63
2022/06/17 08:10:38;;;;;;;6.78;3.38;;;;;;;;;;4994031;28;20252;-63
2022/06/17 08:13:05;;;;;;;7.53;3.10;;;;;;;;;;4995413;28;20217;-64
2022/06/17 08:15:31;;;;;;;7.38;3.38;;;;;;;;;;4995210;28;20245;-63
2022/06/17 08:17:56;;;;;;;4.22;2.90;;;;;;;;;;4995175;28;20783;-64
2022/06/17 08:20:29;;;;;;;5.20;3.00;;;;;;;;;;4994968;28;20190;-63
2022/06/17 08:22:54;;;;;;;4.97;3.40;;;;;;;;;;4995948;28;20198;-63
2022/06/17 08:25:20;;;;;;;4.35;2.88;;;;;;;;;;4997334;28;20190;-63
2022/06/17 08:27:48;;;;;;;5.78;2.97;;;;;;;;;;4995015;28;20226;-63
2022/06/17 08:30:15;;;;;;;4.25;2.63;;;;;;;;;;4995836;28;20206;-64
2022/06/17 08:32:46;;;;;;;6.15;3.00;;;;;;;;;;4996066;28;20345;-64
2022/06/17 08:35:19;;;;;;;5.60;2.65;;;;;;;;;;4996726;28;20278;-64
2022/06/17 08:37:46;;;;;;;4.88;2.70;;;;;;;;;;4994958;28;20182;-66
2022/06/17 08:40:34;;;;;;;3.45;2.50;;;;;;;;;;4995092;28;20262;-64
2022/06/17 08:43:08;;;;;;;3.35;2.08;;;;;;;;;;4996815;28;20582;-64
2022/06/17 08:45:55;;;;;;;6.80;2.90;;;;;;;;;;4977626;28;20189;-63
2022/06/17 08:48:46;;;;;;;4.55;2.75;;;;;;;;;;4996381;28;20891;-66
2022/06/17 08:51:38;;;;;;;5.70;2.97;;;;;;;;;;4996531;28;20190;-64
2022/06/17 08:54:41;;;;;;;8.05;3.25;;;;;;;;;;4988198;28;20638;-64
2022/06/17 08:57:23;;;;;;;11.23;3.60;;;;;;;;;;5010754;28;21020;-65
2022/06/17 09:00:00;;;;;;;6.65;3.22;;;;;;;;;;4995819;28;20662;-63
2022/06/17 09:02:36;;;;;;;5.55;2.60;;;;;;;;;;5000506;28;20190;-66
2022/06/17 09:05:24;;;;;;;8.52;3.17;;;;;;;;;;4999763;28;20174;-64
2022/06/17 09:08:34;;;;;;;5.45;2.78;;;;;;;;;;4998053;28;20638;-63
2022/06/17 09:11:18;;;;;;;5.35;3.20;;;;;;;;;;4999416;28;20593;-63
2022/06/17 09:13:55;;;;;;;7.18;2.78;;;;;;;;;;4999458;28;20207;-63
2022/06/17 09:16:30;;;;;;;7.95;3.08;;;;;;;;;;4999996;28;20186;-64
2022/06/17 09:19:00;;;;;;;4.03;2.47;;;;;;;;;;5001144;28;20221;-64
2022/06/17 09:21:32;;;;;;;6.95;2.60;;;;;;;;;;5000422;28;20233;-64
2022/06/17 09:24:04;;;;;;;8.00;2.63;;;;;;;;;;4998425;28;20194;-64
2022/06/17 09:26:37;;;;;;;4.93;2.97;;;;;;;;;;4999180;28;20241;-65
2022/06/17 09:29:18;;;;;;;6.57;3.15;;;;;;;;;;4997899;28;20214;-64
2022/06/17 09:31:49;;;;;;;5.47;2.28;;;;;;;;;;4998875;28;20290;-64
2022/06/17 09:34:46;;;;;;;3.97;2.25;;;;;;;;;;5001133;28;20685;-63
2022/06/17 09:37:18;;;;;;;5.70;2.72;;;;;;;;;;4998799;28;20314;-64
2022/06/17 09:39:57;;;;;;;3.65;2.50;;;;;;;;;;4999248;28;20530;-66
2022/06/17 09:42:49;;;;;;;5.63;2.55;;;;;;;;;;4999033;28;20249;-64
2022/06/17 09:45:25;;;;;;;5.55;2.55;;;;;;;;;;4999132;28;20217;-65
2022/06/17 09:48:03;;;;;;;6.05;2.13;;;;;;;;;;5030900;28;20198;-66
2022/06/17 09:50:36;;;;;;;3.67;2.50;;;;;;;;;;4997396;28;20182;-64
2022/06/17 09:53:09;;;;;;;4.93;2.42;;;;;;;;;;4998377;28;20635;-64
2022/06/17 09:55:41;;;;;;;4.97;2.90;;;;;;;;;;4997808;28;20184;-66
2022/06/17 09:58:36;;;;;;;6.43;2.38;;;;;;;;;;4997713;28;20534;-66
2022/06/17 10:01:02;;;;;;;7.32;2.80;;;;;;;;;;4997493;28;20205;-66
2022/06/17 10:03:32;;;;;;;7.07;3.22;;;;;;;;;;4999126;28;20642;-65
2022/06/17 10:06:03;;;;;;;6.38;2.25;;;;;;;;;;4999807;28;20228;-67
2022/06/17 10:09:00;;;;;;;4.50;2.58;;;;;;;;;;4999746;28;20215;-66
2022/06/17 10:11:35;;;;;;;4.40;2.63;;;;;;;;;;4997564;28;20179;-65
2022/06/17 10:14:06;;;;;;;4.45;2.60;;;;;;;;;;4996543;28;21066;-65
2022/06/17 10:20:16;;;;;;;6.97;3.00;;;;;;;;;;4998724;28;20241;-65
2022/06/17 10:22:59;;;;;;;7.93;2.70;;;;;;;;;;4997366;28;20611;-65
2022/06/17 10:25:46;;;;;;;8.55;3.08;;;;;;;;;;4998044;28;20236;-66
2022/06/17 10:28:45;;;;;;;3.85;3.10;;;;;;;;;;4997728;28;20285;-64
2022/06/17 10:31:34;;;;;;;5.60;3.13;;;;;;;;;;4999320;28;20732;-64
2022/06/17 10:34:05;;;;;;;9.25;3.17;;;;;;;;;;4997573;28;20595;-63
2022/06/17 10:36:31;;;;;;;4.30;2.75;;;;;;;;;;4998557;28;20607;-63
2022/06/17 10:38:58;;;;;;;6.55;3.50;;;;;;;;;;4995885;28;20191;-65
2022/06/17 10:41:23;;;;;;;9.63;2.95;;;;;;;;;;4997675;28;20182;-66
2022/06/17 10:43:51;;;;;;;7.85;3.50;;;;;;;;;;4996686;28;20191;-64
2022/06/17 10:46:24;;;;;;;4.75;3.15;;;;;;;;;;4995068;28;20194;-64
2022/06/17 10:48:56;;;;;;;5.55;3.33;;;;;;;;;;4994662;28;20210;-66
2022/06/17 10:51:22;;;;;;;6.30;3.28;;;;;;;;;;4995954;28;20599;-64
2022/06/17 10:53:52;;;;;;;5.65;3.22;;;;;;;;;;4996700;28;20187;-65
2022/06/17 10:56:31;;;;;;;4.55;3.30;;;;;;;;;;4998844;28;20306;-65
2022/06/17 10:59:02;;;;;;;4.43;2.90;;;;;;;;;;4997812;28;20191;-65
2022/06/17 11:01:54;;;;;;;8.60;3.33;;;;;;;;;;4994781;28;20198;-67
2022/06/17 11:04:25;;;;;;;7.03;3.83;;;;;;;;;;4997979;28;20453;-64
2022/06/17 11:06:57;;;;;;;6.18;2.95;;;;;;;;;;4997628;28;20269;-66
2022/06/17 11:09:26;;;;;;;7.15;3.10;;;;;;;;;;4997910;28;20191;-64
2022/06/17 11:12:10;;;;;;;5.03;2.83;;;;;;;;;;4998604;28;20735;-65
2022/06/17 11:14:44;;;;;;;8.43;2.92;;;;;;;;;;4997296;28;20281;-65
2022/06/17 11:17:20;;;;;;;5.85;3.17;;;;;;;;;;4998892;28;20191;-66
2022/06/17 11:19:58;;;;;;;7.75;3.25;;;;;;;;;;4997019;28;20194;-65
2022/06/17 11:22:32;;;;;;;5.22;3.53;;;;;;;;;;4998863;28;20267;-64
2022/06/17 11:25:03;;;;;;;8.63;3.72;;;;;;;;;;4997934;28;20555;-65
2022/06/17 11:27:41;;;;;;;10.07;3.42;;;;;;;;;;4997243;28;20481;-65
2022/06/17 11:30:20;;;;;;;8.98;3.38;;;;;;;;;;4998029;28;20209;-65
2022/06/17 11:32:45;;;;;;;6.40;2.92;;;;;;;;;;4998169;28;20690;-64
2022/06/17 11:35:27;;;;;;;5.45;2.92;;;;;;;;;;4999279;28;20301;-65
2022/06/17 11:37:54;;;;;;;5.63;3.22;;;;;;;;;;4996817;28;20735;-65
2022/06/17 11:40:23;;;;;;;9.00;3.42;;;;;;;;;;4997132;28;20195;-63
2022/06/17 11:42:51;;;;;;;6.75;3.45;;;;;;;;;;4997999;28;20217;-64
2022/06/17 11:45:24;;;;;;;6.55;3.10;;;;;;;;;;4995701;28;20590;-65
2022/06/17 11:47:55;;;;;;;6.75;3.45;;;;;;;;;;4996441;28;20213;-66
2022/06/17 11:50:30;;;;;;;9.10;3.60;;;;;;;;;;4996414;28;20670;-64
2022/06/17 11:53:03;;;;;;;4.68;3.20;;;;;;;;;;4997349;28;20189;-64
2022/06/17 11:55:30;;;;;;;8.30;3.70;;;;;;;;;;4997798;28;20186;-64
2022/06/17 11:57:55;;;;;;;8.88;3.47;;;;;;;;;;4998190;28;20193;-64
2022/06/17 12:00:39;;;;;;;6.95;3.47;;;;;;;;;;4997526;28;20289;-64
2022/06/17 12:03:05;;;;;;;8.60;3.17;;;;;;;;;;4998007;28;20186;-68
2022/06/17 12:05:32;;;;;;;5.35;2.78;;;;;;;;;;4998562;28;20193;-66
2022/06/17 12:08:23;;;;;;;6.88;3.17;;;;;;;;;;4996061;28;20199;-64
2022/06/17 12:10:55;;;;;;;4.68;3.00;;;;;;;;;;4998648;28;21219;-64
2022/06/17 12:13:23;;;;;;;6.72;3.30;;;;;;;;;;4996877;28;20381;-67
2022/06/17 12:16:03;;;;;;;8.32;4.10;;;;;;;;;;4998427;28;20320;-63
2022/06/17 12:18:34;;;;;;;6.97;3.28;;;;;;;;;;4997029;28;20182;-64
2022/06/17 12:21:29;;;;;;;7.30;3.70;;;;;;;;;;4999904;28;20586;-64
2022/06/17 12:24:23;;;;;;;5.72;3.90;;;;;;;;;;5012935;28;20205;-66
2022/06/17 12:27:05;;;;;;;4.45;2.53;;;;;;;;;;4996472;28;20315;-65
2022/06/17 12:29:49;;;;;;;9.15;3.10;;;;;;;;;;4998122;28;20194;-64
2022/06/17 12:32:22;;;;;;;7.55;3.00;;;;;;;;;;4997289;28;20284;-63
2022/06/17 12:35:14;;;;;;;4.00;2.58;;;;;;;;;;4997416;28;20182;-65
2022/06/17 12:37:49;;;;;;;6.90;2.78;;;;;;;;;;4973690;28;20581;-64
2022/06/17 12:40:22;;;;;;;5.22;2.80;;;;;;;;;;4997396;28;20186;-66
2022/06/17 12:43:06;;;;;;;5.75;3.22;;;;;;;;;;4996928;28;20666;-64
2022/06/17 12:45:57;;;;;;;6.93;3.35;;;;;;;;;;4997172;28;20174;-65
2022/06/17 12:48:25;;;;;;;9.07;3.08;;;;;;;;;;4996754;28;20210;-65
2022/06/17 12:54:23;;;;;;;7.65;2.70;;;;;;;;;;4996133;28;20190;-66
2022/06/17 12:57:17;;;;;;;7.25;2.60;;;;;;;;;;4996637;28;20250;-64
2022/06/17 12:59:46;;;;;;;4.88;2.50;;;;;;;;;;4987073;28;20206;-63
2022/06/17 13:02:22;;;;;;;4.07;2.55;;;;;;;;;;4997270;28;20721;-65
2022/06/17 13:05:14;;;;;;;7.68;2.50;;;;;;;;;;4995467;28;20273;-65
2022/06/17 13:08:01;;;;;;;7.03;2.50;;;;;;;;;;4994810;28;20209;-64
2022/06/17 13:10:51;;;;;;;4.57;2.03;;;;;;;;;;4997294;28;20210;-67
2022/06/17 13:13:39;;;;;;;10.95;2.30;;;;;;;;;;5010755;28;20846;-63
2022/06/17 13:16:12;;;;;;;3.00;2.08;;;;;;;;;;4997271;28;20623;-65
2022/06/17 13:18:44;;;;;;;3.70;2.40;;;;;;;;;;4995440;28;20186;-64
2022/06/17 13:21:24;;;;;;;4.60;2.13;;;;;;;;;;4996454;28;20182;-64
2022/06/17 13:24:08;;;;;;;4.43;1.80;;;;;;;;;;4995140;28;20198;-65
2022/06/17 13:26:59;;;;;;;4.00;2.00;;;;;;;;;;4997066;28;20225;-68
2022/06/17 13:29:40;;;;;;;1.70;1.60;;;;;;;;;;4998022;28;20197;-66
2022/06/17 13:32:13;;;;;;;3.00;1.52;;;;;;;;;;4996435;28;20768;-64
2022/06/17 13:34:46;;;;;;;4.63;1.98;;;;;;;;;;4995246;28;20179;-65
2022/06/17 13:37:15;;;;;;;3.60;1.73;;;;;;;;;;4996242;28;20194;-65
2022/06/17 13:39:45;;;;;;;6.18;1.90;;;;;;;;;;4997364;28;20233;-63
2022/06/17 13:42:15;;;;;;;4.53;1.63;;;;;;;;;;4996957;28;20186;-63
2022/06/17 13:44:57;;;;;;;5.68;1.98;;;;;;;;;;4995927;28;20658;-65
2022/06/17 13:47:37;;;;;;;4.10;1.85;;;;;;;;;;4996615;28;20748;-64
2022/06/17 13:50:18;;;;;;;4.05;1.83;;;;;;;;;;4999324;28;20194;-63
2022/06/17 13:52:59;;;;;;;6.38;2.22;;;;;;;;;;4998514;28;20198;-64
2022/06/17 13:55:34;;;;;;;2.67;1.73;;;;;;;;;;4998878;28;20178;-64
2022/06/17 13:58:22;;;;;;;4.50;2.30;;;;;;;;;;5001825;28;20182;-65
2022/06/17 14:00:53;;;;;;;5.47;1.90;;;;;;;;;;5000208;28;20382;-67
2022/06/17 14:03:21;;;;;;;3.00;2.10;;;;;;;;;;4998415;28;20186;-67
2022/06/17 14:05:56;;;;;;;4.07;2.42;;;;;;;;;;4999282;28;20189;-65
2022/06/17 14:08:45;;;;;;;5.10;2.15;;;;;;;;;;5000405;28;20347;-67
2022/06/17 14:14:19;;;;;;;2.47;1.50;;;;;;;;;;4999647;28;20340;-65
2022/06/17 14:17:06;;;;;;;3.58;1.58;;;;;;;;;;4999363;28;20217;-67
2022/06/17 14:19:51;;;;;;;2.92;1.58;;;;;;;;;;4998261;28;20232;-66
2022/06/17 14:22:38;;;;;;;3.15;1.52;;;;;;;;;;4997271;28;20285;-63
2022/06/17 14:25:23;;;;;;;4.78;1.63;;;;;;;;;;4995144;28;20276;-64
2022/06/17 14:27:51;;;;;;;3.15;1.65;;;;;;;;;;4998219;28;20707;-66
2022/06/17 14:30:18;;;;;;;2.70;1.67;;;;;;;;;;4996803;28;20677;-65
2022/06/17 14:32:43;;;;;;;4.07;1.50;;;;;;;;;;4996748;28;20221;-66
2022/06/17 14:35:52;;;;;;;2.92;1.45;;;;;;;;;;4996941;28;20190;-64
2022/06/17 14:38:24;;;;;;;2.72;1.50;;;;;;;;;;4980620;28;20634;-65
2022/06/17 14:44:12;;;;;;;1.70;1.60;;;;;;;;;;4996943;28;20742;-64
2022/06/17 14:47:23;;;;;;;2.08;1.33;;;;;;;;;;4983642;28;20653;-64
2022/06/17 14:50:19;;;;;;;1.95;1.40;;;;;;;;;;4992511;28;20214;-64
2022/06/17 14:52:47;;;;;;;4.30;1.65;;;;;;;;;;4999068;28;20178;-66
2022/06/17 14:55:13;;;;;;;2.47;1.95;;;;;;;;;;4998165;28;20289;-64
2022/06/17 14:58:00;;;;;;;2.65;1.70;;;;;;;;;;4998685;28;20262;-67
2022/06/17 15:00:30;;;;;;;2.95;1.73;;;;;;;;;;4996663;28;20247;-66
2022/06/17 15:02:57;;;;;;;3.53;1.85;;;;;;;;;;4995787;28;20359;-65
2022/06/17 15:05:37;;;;;;;2.90;1.70;;;;;;;;;;4997431;28;20186;-65
2022/06/17 15:08:12;;;;;;;3.53;1.77;;;;;;;;;;4997174;28;20279;-67
2022/06/17 15:10:39;;;;;;;3.25;1.70;;;;;;;;;;4995478;28;20719;-64
2022/06/17 15:15:57;;;;;;;3.15;1.92;;;;;;;;;;4997127;28;20627;-65
2022/06/17 15:18:22;;;;;;;2.42;1.80;;;;;;;;;;4998112;28;20269;-66
2022/06/17 15:20:52;;;;;;;3.42;2.00;;;;;;;;;;4998984;28;20289;-65
2022/06/17 15:23:36;;;;;;;3.05;1.90;;;;;;;;;;4998644;28;20189;-64
2022/06/17 15:26:11;;;;;;;2.70;2.05;;;;;;;;;;4997564;28;20222;-65
2022/06/17 15:28:44;;;;;;;2.60;1.92;;;;;;;;;;4997560;28;20697;-64
2022/06/17 15:31:27;;;;;;;5.72;2.35;;;;;;;;;;4998757;28;20313;-65